sensor_id;sensor_type;location;lat;lon;timestamp;pressure;altitude;pressure_sealevel;temperature;humidity
13387;BME280;6763;48.524;9.044;2022-07-23T00:01:14;97822.72;;;25.95;54.38
13387;BME280;6763;48.524;9.044;2022-07-23T00:03:39;97811.84;;;25.98;53.85
13387;BME280;6763;48.524;9.044;2022-07-23T00:06:05;97806.44;;;25.99;53.98
13387;BME280;6763;48.524;9.044;2022-07-23T00:08:30;97793.66;;;26.04;53.81
13387;BME280;6763;48.524;9.044;2022-07-23T00:10:55;97788.06;;;26.07;53.00
13387;BME280;6763;48.524;9.044;2022-07-23T00:13:21;97752.38;;;26.11;52.44
13387;BME280;6763;48.524;9.044;2022-07-23T00:15:46;97755.41;;;26.18;52.83
13387;BME280;6763;48.524;9.044;2022-07-23T00:18:11;97754.75;;;26.25;52.71
13387;BME280;6763;48.524;9.044;2022-07-23T00:20:37;97760.53;;;26.30;53.03
13387;BME280;6763;48.524;9.044;2022-07-23T00:23:02;97771.03;;;26.32;53.79
13387;BME280;6763;48.524;9.044;2022-07-23T00:25:28;97779.84;;;26.32;53.45
13387;BME280;6763;48.524;9.044;2022-07-23T00:27:53;97785.28;;;26.31;54.11
13387;BME280;6763;48.524;9.044;2022-07-23T00:30:18;97773.94;;;26.29;54.03
13387;BME280;6763;48.524;9.044;2022-07-23T00:32:48;97769.88;;;26.25;53.93
13387;BME280;6763;48.524;9.044;2022-07-23T00:35:15;97775.91;;;26.16;54.03
13387;BME280;6763;48.524;9.044;2022-07-23T00:37:41;97767.94;;;26.05;53.91
13387;BME280;6763;48.524;9.044;2022-07-23T00:40:07;97763.25;;;25.97;53.70
13387;BME280;6763;48.524;9.044;2022-07-23T00:42:32;97793.66;;;25.93;53.89
13387;BME280;6763;48.524;9.044;2022-07-23T00:44:58;97774.50;;;25.89;53.90
13387;BME280;6763;48.524;9.044;2022-07-23T00:47:23;97783.44;;;25.88;53.31
13387;BME280;6763;48.524;9.044;2022-07-23T00:49:49;97783.31;;;25.90;52.87
13387;BME280;6763;48.524;9.044;2022-07-23T00:52:14;97792.69;;;25.94;52.00
13387;BME280;6763;48.524;9.044;2022-07-23T00:54:41;97804.50;;;26.01;51.10
13387;BME280;6763;48.524;9.044;2022-07-23T00:57:06;97782.91;;;26.06;50.93
13387;BME280;6763;48.524;9.044;2022-07-23T00:59:31;97776.50;;;26.08;50.43
13387;BME280;6763;48.524;9.044;2022-07-23T01:01:57;97772.66;;;26.12;50.63
13387;BME280;6763;48.524;9.044;2022-07-23T01:04:22;97772.66;;;26.12;50.32
13387;BME280;6763;48.524;9.044;2022-07-23T01:06:48;97781.47;;;26.13;50.27
13387;BME280;6763;48.524;9.044;2022-07-23T01:09:13;97779.53;;;26.15;50.34
13387;BME280;6763;48.524;9.044;2022-07-23T01:11:39;97784.97;;;26.13;49.96
13387;BME280;6763;48.524;9.044;2022-07-23T01:14:15;97770.59;;;26.16;49.23
13387;BME280;6763;48.524;9.044;2022-07-23T01:16:42;97760.13;;;26.14;49.44
13387;BME280;6763;48.524;9.044;2022-07-23T01:19:09;97750.34;;;26.15;49.34
13387;BME280;6763;48.524;9.044;2022-07-23T01:21:41;97730.09;;;26.14;49.29
13387;BME280;6763;48.524;9.044;2022-07-23T01:24:08;97716.69;;;26.15;49.55
13387;BME280;6763;48.524;9.044;2022-07-23T01:26:33;97691.72;;;26.18;49.37
13387;BME280;6763;48.524;9.044;2022-07-23T01:28:59;97686.28;;;26.19;49.59
13387;BME280;6763;48.524;9.044;2022-07-23T01:31:25;97674.84;;;26.19;50.11
13387;BME280;6763;48.524;9.044;2022-07-23T01:33:50;97659.75;;;26.19;50.47
13387;BME280;6763;48.524;9.044;2022-07-23T01:36:15;97660.59;;;26.20;50.44
13387;BME280;6763;48.524;9.044;2022-07-23T01:38:41;97681.84;;;26.20;50.53
13387;BME280;6763;48.524;9.044;2022-07-23T01:41:06;97692.44;;;26.20;50.66
13387;BME280;6763;48.524;9.044;2022-07-23T01:43:31;97702.06;;;26.21;50.47
13387;BME280;6763;48.524;9.044;2022-07-23T01:45:57;97695.81;;;26.22;50.39
13387;BME280;6763;48.524;9.044;2022-07-23T01:48:22;97687.84;;;26.22;50.60
13387;BME280;6763;48.524;9.044;2022-07-23T01:50:47;97703.78;;;26.22;50.45
13387;BME280;6763;48.524;9.044;2022-07-23T01:53:13;97711.03;;;26.20;50.52
13387;BME280;6763;48.524;9.044;2022-07-23T01:55:39;97711.28;;;26.17;50.73
13387;BME280;6763;48.524;9.044;2022-07-23T01:58:05;97704.28;;;26.16;50.99
13387;BME280;6763;48.524;9.044;2022-07-23T02:00:31;97694.25;;;26.08;51.59
13387;BME280;6763;48.524;9.044;2022-07-23T02:02:56;97705.38;;;26.02;51.79
13387;BME280;6763;48.524;9.044;2022-07-23T02:05:24;97717.22;;;25.98;51.53
13387;BME280;6763;48.524;9.044;2022-07-23T02:07:49;97732.66;;;25.93;51.50
13387;BME280;6763;48.524;9.044;2022-07-23T02:10:15;97744.84;;;25.84;51.09
13387;BME280;6763;48.524;9.044;2022-07-23T02:12:40;97751.00;;;25.74;51.21
13387;BME280;6763;48.524;9.044;2022-07-23T02:15:06;97767.53;;;25.66;51.01
13387;BME280;6763;48.524;9.044;2022-07-23T02:17:32;97760.91;;;25.61;50.78
13387;BME280;6763;48.524;9.044;2022-07-23T02:19:57;97763.81;;;25.58;50.80
13387;BME280;6763;48.524;9.044;2022-07-23T02:22:22;97780.06;;;25.53;50.52
13387;BME280;6763;48.524;9.044;2022-07-23T02:24:48;97790.91;;;25.50;50.71
13387;BME280;6763;48.524;9.044;2022-07-23T02:27:13;97790.91;;;25.50;50.62
13387;BME280;6763;48.524;9.044;2022-07-23T02:29:38;97793.84;;;25.47;50.57
13387;BME280;6763;48.524;9.044;2022-07-23T02:32:04;97787.75;;;25.45;50.43
13387;BME280;6763;48.524;9.044;2022-07-23T02:34:29;97795.63;;;25.47;50.53
13387;BME280;6763;48.524;9.044;2022-07-23T02:36:55;97796.59;;;25.46;50.12
13387;BME280;6763;48.524;9.044;2022-07-23T02:39:20;97800.94;;;25.47;50.22
13387;BME280;6763;48.524;9.044;2022-07-23T02:41:45;97798.16;;;25.48;50.42
13387;BME280;6763;48.524;9.044;2022-07-23T02:44:11;97805.16;;;25.49;50.10
13387;BME280;6763;48.524;9.044;2022-07-23T02:46:36;97799.63;;;25.52;49.95
13387;BME280;6763;48.524;9.044;2022-07-23T02:49:02;97797.69;;;25.54;49.82
13387;BME280;6763;48.524;9.044;2022-07-23T02:51:29;97804.56;;;25.57;50.08
13387;BME280;6763;48.524;9.044;2022-07-23T02:53:55;97812.50;;;25.57;50.40
13387;BME280;6763;48.524;9.044;2022-07-23T02:56:20;97810.56;;;25.59;50.35
13387;BME280;6763;48.524;9.044;2022-07-23T02:58:45;97820.94;;;25.62;50.28
13387;BME280;6763;48.524;9.044;2022-07-23T03:01:11;97820.94;;;25.62;50.35
13387;BME280;6763;48.524;9.044;2022-07-23T03:03:36;97821.03;;;25.60;50.80
13387;BME280;6763;48.524;9.044;2022-07-23T03:06:02;97828.16;;;25.60;50.45
13387;BME280;6763;48.524;9.044;2022-07-23T03:08:27;97832.38;;;25.62;50.02
13387;BME280;6763;48.524;9.044;2022-07-23T03:10:52;97835.63;;;25.66;49.98
13387;BME280;6763;48.524;9.044;2022-07-23T03:13:18;97835.28;;;25.70;50.02
13387;BME280;6763;48.524;9.044;2022-07-23T03:15:43;97840.22;;;25.75;49.81
13387;BME280;6763;48.524;9.044;2022-07-23T03:18:08;97850.47;;;25.79;49.79
13387;BME280;6763;48.524;9.044;2022-07-23T03:20:34;97843.22;;;25.81;49.67
13387;BME280;6763;48.524;9.044;2022-07-23T03:22:59;97841.53;;;25.80;49.94
13387;BME280;6763;48.524;9.044;2022-07-23T03:25:24;97837.19;;;25.79;50.16
13387;BME280;6763;48.524;9.044;2022-07-23T03:27:50;97836.59;;;25.76;50.08
13387;BME280;6763;48.524;9.044;2022-07-23T03:30:15;97814.06;;;25.70;50.53
13387;BME280;6763;48.524;9.044;2022-07-23T03:32:41;97806.34;;;25.67;50.66
13387;BME280;6763;48.524;9.044;2022-07-23T03:35:06;97802.13;;;25.65;50.79
13387;BME280;6763;48.524;9.044;2022-07-23T03:37:32;97804.19;;;25.61;50.71
13387;BME280;6763;48.524;9.044;2022-07-23T03:39:57;97813.22;;;25.59;51.09
13387;BME280;6763;48.524;9.044;2022-07-23T03:42:22;97813.44;;;25.56;51.24
13387;BME280;6763;48.524;9.044;2022-07-23T03:44:48;97818.88;;;25.54;51.16
13387;BME280;6763;48.524;9.044;2022-07-23T03:47:13;97817.19;;;25.53;51.10
13387;BME280;6763;48.524;9.044;2022-07-23T03:49:39;97813.97;;;25.50;51.01
13387;BME280;6763;48.524;9.044;2022-07-23T03:52:05;97823.56;;;25.51;50.90
13387;BME280;6763;48.524;9.044;2022-07-23T03:54:30;97835.88;;;25.52;50.76
13387;BME280;6763;48.524;9.044;2022-07-23T03:56:55;97845.41;;;25.54;50.79
13387;BME280;6763;48.524;9.044;2022-07-23T03:59:21;97853.13;;;25.57;50.93
13387;BME280;6763;48.524;9.044;2022-07-23T04:01:47;97858.91;;;25.62;50.62
13387;BME280;6763;48.524;9.044;2022-07-23T04:04:12;97861.06;;;25.68;50.54
13387;BME280;6763;48.524;9.044;2022-07-23T04:06:37;97852.88;;;25.71;50.10
13387;BME280;6763;48.524;9.044;2022-07-23T04:09:03;97853.34;;;25.76;50.12
13387;BME280;6763;48.524;9.044;2022-07-23T04:11:29;97855.91;;;25.78;50.16
13387;BME280;6763;48.524;9.044;2022-07-23T04:13:55;97859.38;;;25.78;50.20
13387;BME280;6763;48.524;9.044;2022-07-23T04:16:20;97852.75;;;25.73;50.25
13387;BME280;6763;48.524;9.044;2022-07-23T04:18:46;97855.66;;;25.70;50.53
13387;BME280;6763;48.524;9.044;2022-07-23T04:21:11;97847.06;;;25.66;50.74
13387;BME280;6763;48.524;9.044;2022-07-23T04:23:36;97849.88;;;25.65;50.75
13387;BME280;6763;48.524;9.044;2022-07-23T04:26:02;97849.00;;;25.64;50.62
13387;BME280;6763;48.524;9.044;2022-07-23T04:28:27;97852.63;;;25.63;50.75
13387;BME280;6763;48.524;9.044;2022-07-23T04:30:52;97864.91;;;25.64;50.72
13387;BME280;6763;48.524;9.044;2022-07-23T04:33:20;97864.69;;;25.67;50.63
13387;BME280;6763;48.524;9.044;2022-07-23T04:35:46;97856.97;;;25.64;51.13
13387;BME280;6763;48.524;9.044;2022-07-23T04:38:11;97863.59;;;25.59;51.23
13387;BME280;6763;48.524;9.044;2022-07-23T04:40:36;97867.31;;;25.56;51.21
13387;BME280;6763;48.524;9.044;2022-07-23T04:43:02;97867.47;;;25.55;51.26
13387;BME280;6763;48.524;9.044;2022-07-23T04:45:27;97863.72;;;25.57;51.06
13387;BME280;6763;48.524;9.044;2022-07-23T04:47:52;97856.13;;;25.64;50.96
13387;BME280;6763;48.524;9.044;2022-07-23T04:50:18;97853.56;;;25.73;50.77
13387;BME280;6763;48.524;9.044;2022-07-23T04:52:47;97848.28;;;25.84;50.18
13387;BME280;6763;48.524;9.044;2022-07-23T04:55:13;97858.66;;;25.87;50.23
13387;BME280;6763;48.524;9.044;2022-07-23T04:57:38;97871.19;;;25.74;50.55
13387;BME280;6763;48.524;9.044;2022-07-23T05:00:05;97883.09;;;25.58;50.87
13387;BME280;6763;48.524;9.044;2022-07-23T05:02:31;97888.41;;;25.47;51.64
13387;BME280;6763;48.524;9.044;2022-07-23T05:04:56;97884.75;;;25.37;51.86
13387;BME280;6763;48.524;9.044;2022-07-23T05:07:22;97887.13;;;25.28;52.26
13387;BME280;6763;48.524;9.044;2022-07-23T05:09:47;97868.91;;;25.24;52.25
13387;BME280;6763;48.524;9.044;2022-07-23T05:12:13;97868.59;;;25.28;52.22
13387;BME280;6763;48.524;9.044;2022-07-23T05:14:38;97861.13;;;25.34;52.26
13387;BME280;6763;48.524;9.044;2022-07-23T05:17:03;97871.97;;;25.42;52.20
13387;BME280;6763;48.524;9.044;2022-07-23T05:19:29;97872.00;;;25.53;52.29
13387;BME280;6763;48.524;9.044;2022-07-23T05:21:54;97860.81;;;25.60;52.14
13387;BME280;6763;48.524;9.044;2022-07-23T05:24:20;97853.84;;;25.70;51.93
13387;BME280;6763;48.524;9.044;2022-07-23T05:26:45;97867.31;;;25.78;52.08
13387;BME280;6763;48.524;9.044;2022-07-23T05:29:10;97855.75;;;25.79;51.62
13387;BME280;6763;48.524;9.044;2022-07-23T05:31:36;97859.25;;;25.80;51.62
13387;BME280;6763;48.524;9.044;2022-07-23T05:34:01;97863.63;;;25.81;51.74
13387;BME280;6763;48.524;9.044;2022-07-23T05:36:26;97870.72;;;25.80;51.64
13387;BME280;6763;48.524;9.044;2022-07-23T05:38:52;97872.06;;;25.86;51.82
13387;BME280;6763;48.524;9.044;2022-07-23T05:41:17;97859.59;;;25.98;51.65
13387;BME280;6763;48.524;9.044;2022-07-23T05:43:43;97858.41;;;26.13;51.34
13387;BME280;6763;48.524;9.044;2022-07-23T05:46:08;97859.94;;;26.37;51.14
13387;BME280;6763;48.524;9.044;2022-07-23T05:48:34;97859.13;;;26.69;50.20
13387;BME280;6763;48.524;9.044;2022-07-23T05:50:59;97855.50;;;27.01;49.71
13387;BME280;6763;48.524;9.044;2022-07-23T05:53:26;97850.84;;;27.35;48.91
13387;BME280;6763;48.524;9.044;2022-07-23T05:55:51;97849.31;;;27.63;48.03
13387;BME280;6763;48.524;9.044;2022-07-23T05:58:16;97848.06;;;27.88;47.47
13387;BME280;6763;48.524;9.044;2022-07-23T06:00:42;97852.22;;;28.01;46.55
13387;BME280;6763;48.524;9.044;2022-07-23T06:03:07;97853.88;;;28.12;46.71
13387;BME280;6763;48.524;9.044;2022-07-23T06:05:33;97847.63;;;28.22;46.15
13387;BME280;6763;48.524;9.044;2022-07-23T06:07:58;97844.28;;;28.30;46.23
13387;BME280;6763;48.524;9.044;2022-07-23T06:10:23;97844.31;;;28.40;45.96
13387;BME280;6763;48.524;9.044;2022-07-23T06:12:49;97842.78;;;28.56;45.90
13387;BME280;6763;48.524;9.044;2022-07-23T06:15:14;97837.50;;;28.75;45.43
13387;BME280;6763;48.524;9.044;2022-07-23T06:17:39;97837.50;;;28.95;44.65
13387;BME280;6763;48.524;9.044;2022-07-23T06:20:09;97832.97;;;29.14;44.01
13387;BME280;6763;48.524;9.044;2022-07-23T06:22:35;97834.13;;;29.31;43.52
13387;BME280;6763;48.524;9.044;2022-07-23T06:25:01;97830.13;;;29.44;43.10
13387;BME280;6763;48.524;9.044;2022-07-23T06:27:26;97844.44;;;29.53;42.41
13387;BME280;6763;48.524;9.044;2022-07-23T06:29:52;97845.84;;;29.57;42.25
13387;BME280;6763;48.524;9.044;2022-07-23T06:32:17;97854.38;;;29.61;41.84
13387;BME280;6763;48.524;9.044;2022-07-23T06:34:42;97853.81;;;29.67;41.50
13387;BME280;6763;48.524;9.044;2022-07-23T06:37:08;97850.97;;;29.78;41.05
13387;BME280;6763;48.524;9.044;2022-07-23T06:39:33;97854.47;;;29.88;40.60
13387;BME280;6763;48.524;9.044;2022-07-23T06:41:59;97853.28;;;30.00;40.69
13387;BME280;6763;48.524;9.044;2022-07-23T06:44:26;97857.03;;;30.07;39.95
13387;BME280;6763;48.524;9.044;2022-07-23T06:46:51;97857.28;;;30.14;39.87
13387;BME280;6763;48.524;9.044;2022-07-23T06:49:16;97858.09;;;30.24;39.73
13387;BME280;6763;48.524;9.044;2022-07-23T06:51:42;97867.47;;;30.37;39.54
13387;BME280;6763;48.524;9.044;2022-07-23T06:54:07;97866.53;;;30.46;39.19
13387;BME280;6763;48.524;9.044;2022-07-23T06:56:32;97871.13;;;30.54;38.77
13387;BME280;6763;48.524;9.044;2022-07-23T06:58:58;97873.22;;;30.60;38.72
13387;BME280;6763;48.524;9.044;2022-07-23T07:01:23;97873.44;;;30.66;38.67
13387;BME280;6763;48.524;9.044;2022-07-23T07:03:48;97873.53;;;30.75;38.35
13387;BME280;6763;48.524;9.044;2022-07-23T07:06:14;97878.28;;;30.81;37.89
13387;BME280;6763;48.524;9.044;2022-07-23T07:08:40;97881.16;;;30.87;38.05
13387;BME280;6763;48.524;9.044;2022-07-23T07:11:05;97880.50;;;31.03;38.07
13387;BME280;6763;48.524;9.044;2022-07-23T07:13:31;97882.25;;;31.12;37.21
13387;BME280;6763;48.524;9.044;2022-07-23T07:15:57;97877.13;;;31.18;37.18
13387;BME280;6763;48.524;9.044;2022-07-23T07:18:22;97877.72;;;31.30;36.49
13387;BME280;6763;48.524;9.044;2022-07-23T07:20:48;97864.66;;;31.27;36.53
13387;BME280;6763;48.524;9.044;2022-07-23T07:23:13;97873.00;;;31.24;36.65
13387;BME280;6763;48.524;9.044;2022-07-23T07:25:39;97873.00;;;31.24;36.58
13387;BME280;6763;48.524;9.044;2022-07-23T07:28:05;97874.53;;;31.26;36.36
13387;BME280;6763;48.524;9.044;2022-07-23T07:30:30;97877.44;;;31.33;35.78
13387;BME280;6763;48.524;9.044;2022-07-23T07:32:55;97887.81;;;31.36;35.64
13387;BME280;6763;48.524;9.044;2022-07-23T07:35:21;97884.44;;;31.34;35.62
13387;BME280;6763;48.524;9.044;2022-07-23T07:37:46;97888.13;;;31.33;35.79
13387;BME280;6763;48.524;9.044;2022-07-23T07:40:11;97886.97;;;31.36;35.97
13387;BME280;6763;48.524;9.044;2022-07-23T07:42:47;97893.47;;;31.51;36.11
13387;BME280;6763;48.524;9.044;2022-07-23T07:45:13;97896.88;;;31.61;35.52
13387;BME280;6763;48.524;9.044;2022-07-23T07:47:39;97905.66;;;31.71;35.35
13387;BME280;6763;48.524;9.044;2022-07-23T07:50:04;97914.34;;;31.73;35.52
13387;BME280;6763;48.524;9.044;2022-07-23T07:52:30;97914.22;;;31.74;35.40
13387;BME280;6763;48.524;9.044;2022-07-23T07:54:55;97915.88;;;31.75;35.49
13387;BME280;6763;48.524;9.044;2022-07-23T07:57:20;97924.44;;;31.79;35.19
13387;BME280;6763;48.524;9.044;2022-07-23T07:59:46;97913.91;;;31.77;35.31
13387;BME280;6763;48.524;9.044;2022-07-23T08:02:11;97922.44;;;31.81;35.01
13387;BME280;6763;48.524;9.044;2022-07-23T08:04:37;97914.94;;;31.84;34.63
13387;BME280;6763;48.524;9.044;2022-07-23T08:07:02;97918.00;;;31.89;34.30
13387;BME280;6763;48.524;9.044;2022-07-23T08:09:27;97923.25;;;31.99;33.81
13387;BME280;6763;48.524;9.044;2022-07-23T08:11:53;97918.00;;;32.15;33.91
13387;BME280;6763;48.524;9.044;2022-07-23T08:14:18;97916.75;;;32.35;33.35
13387;BME280;6763;48.524;9.044;2022-07-23T08:16:43;97912.78;;;32.47;33.03
13387;BME280;6763;48.524;9.044;2022-07-23T08:19:09;97922.72;;;32.55;32.95
13387;BME280;6763;48.524;9.044;2022-07-23T08:21:34;97915.69;;;32.62;32.54
13387;BME280;6763;48.524;9.044;2022-07-23T08:23:59;97915.56;;;32.72;32.46
13387;BME280;6763;48.524;9.044;2022-07-23T08:26:25;97913.75;;;32.88;32.61
13387;BME280;6763;48.524;9.044;2022-07-23T08:28:50;97917.47;;;33.03;31.93
13387;BME280;6763;48.524;9.044;2022-07-23T08:31:15;97921.72;;;33.22;31.80
13387;BME280;6763;48.524;9.044;2022-07-23T08:33:42;97921.72;;;33.30;31.53
13387;BME280;6763;48.524;9.044;2022-07-23T08:36:08;97929.09;;;33.36;31.41
13387;BME280;6763;48.524;9.044;2022-07-23T08:38:33;97927.09;;;33.38;31.25
13387;BME280;6763;48.524;9.044;2022-07-23T08:41:01;97925.22;;;33.39;31.21
13387;BME280;6763;48.524;9.044;2022-07-23T08:43:29;97931.09;;;33.34;30.86
13387;BME280;6763;48.524;9.044;2022-07-23T08:45:56;97930.94;;;33.28;30.56
13387;BME280;6763;48.524;9.044;2022-07-23T08:48:26;97922.91;;;33.28;31.12
13387;BME280;6763;48.524;9.044;2022-07-23T08:50:58;97924.75;;;33.43;31.08
13387;BME280;6763;48.524;9.044;2022-07-23T08:53:25;97930.28;;;33.66;30.58
13387;BME280;6763;48.524;9.044;2022-07-23T08:55:53;97925.38;;;33.86;30.62
13387;BME280;6763;48.524;9.044;2022-07-23T08:58:20;97918.31;;;34.09;30.32
13387;BME280;6763;48.524;9.044;2022-07-23T09:00:46;97916.38;;;34.34;30.03
13387;BME280;6763;48.524;9.044;2022-07-23T09:03:20;97919.16;;;34.48;29.34
13387;BME280;6763;48.524;9.044;2022-07-23T09:05:47;97912.06;;;34.63;29.16
13387;BME280;6763;48.524;9.044;2022-07-23T09:08:14;97909.16;;;34.73;29.10
13387;BME280;6763;48.524;9.044;2022-07-23T09:13:36;97907.34;;;34.96;28.44
13387;BME280;6763;48.524;9.044;2022-07-23T09:16:13;97903.41;;;35.29;28.02
13387;BME280;6763;48.524;9.044;2022-07-23T09:18:45;97904.59;;;35.49;27.39
13387;BME280;6763;48.524;9.044;2022-07-23T09:23:57;97903.19;;;35.16;27.26
13387;BME280;6763;48.524;9.044;2022-07-23T09:31:17;97906.69;;;34.94;28.34
13387;BME280;6763;48.524;9.044;2022-07-23T09:33:43;97908.41;;;34.87;28.27
13387;BME280;6763;48.524;9.044;2022-07-23T09:36:08;97903.09;;;34.71;28.40
13387;BME280;6763;48.524;9.044;2022-07-23T09:38:34;97902.34;;;34.54;28.61
13387;BME280;6763;48.524;9.044;2022-07-23T09:41:09;97909.13;;;34.42;29.13
13387;BME280;6763;48.524;9.044;2022-07-23T09:43:35;97899.91;;;34.37;28.97
13387;BME280;6763;48.524;9.044;2022-07-23T09:46:18;97892.91;;;34.19;29.31
13387;BME280;6763;48.524;9.044;2022-07-23T09:48:44;97893.97;;;33.94;29.72
13387;BME280;6763;48.524;9.044;2022-07-23T09:51:10;97896.03;;;33.84;29.77
13387;BME280;6763;48.524;9.044;2022-07-23T09:53:35;97897.66;;;33.93;30.13
13387;BME280;6763;48.524;9.044;2022-07-23T09:56:01;97900.47;;;34.24;29.80
13387;BME280;6763;48.524;9.044;2022-07-23T09:58:27;97900.03;;;34.43;29.14
13387;BME280;6763;48.524;9.044;2022-07-23T10:00:54;97899.56;;;34.40;29.17
13387;BME280;6763;48.524;9.044;2022-07-23T10:03:23;97901.00;;;34.50;29.19
13387;BME280;6763;48.524;9.044;2022-07-23T10:05:49;97902.16;;;34.64;28.89
13387;BME280;6763;48.524;9.044;2022-07-23T10:08:17;97898.72;;;34.78;29.07
13387;BME280;6763;48.524;9.044;2022-07-23T10:10:45;97896.78;;;35.17;28.61
13387;BME280;6763;48.524;9.044;2022-07-23T10:13:11;97887.75;;;35.56;28.01
13387;BME280;6763;48.524;9.044;2022-07-23T10:16:01;97886.59;;;36.02;27.37
13387;BME280;6763;48.524;9.044;2022-07-23T10:18:27;97881.19;;;36.46;26.68
13387;BME280;6763;48.524;9.044;2022-07-23T10:20:52;97887.66;;;36.81;26.40
13387;BME280;6763;48.524;9.044;2022-07-23T10:23:40;97890.22;;;36.89;26.02
13387;BME280;6763;48.524;9.044;2022-07-23T10:29:09;97899.31;;;36.66;26.47
13387;BME280;6763;48.524;9.044;2022-07-23T10:35:29;97901.91;;;36.45;26.16
13387;BME280;6763;48.524;9.044;2022-07-23T10:38:30;97901.16;;;36.66;25.36
13387;BME280;6763;48.524;9.044;2022-07-23T10:41:01;97890.41;;;36.87;25.15
13387;BME280;6763;48.524;9.044;2022-07-23T10:43:27;97892.16;;;36.95;25.07
13387;BME280;6763;48.524;9.044;2022-07-23T10:45:53;97901.66;;;36.91;24.91
13387;BME280;6763;48.524;9.044;2022-07-23T10:48:25;97890.41;;;36.87;24.45
13387;BME280;6763;48.524;9.044;2022-07-23T10:51:11;97893.56;;;36.91;24.91
13387;BME280;6763;48.524;9.044;2022-07-23T10:56:17;97890.94;;;36.61;25.00
13387;BME280;6763;48.524;9.044;2022-07-23T10:58:47;97882.59;;;36.42;25.25
13387;BME280;6763;48.524;9.044;2022-07-23T11:01:33;97889.25;;;36.46;25.10
13387;BME280;6763;48.524;9.044;2022-07-23T11:03:59;97890.19;;;36.67;24.81
13387;BME280;6763;48.524;9.044;2022-07-23T11:09:30;97883.59;;;36.91;25.24
13387;BME280;6763;48.524;9.044;2022-07-23T11:17:35;97886.88;;;37.22;21.76
13387;BME280;6763;48.524;9.044;2022-07-23T11:22:35;97895.91;;;37.36;21.86
13387;BME280;6763;48.524;9.044;2022-07-23T11:25:01;97894.75;;;37.24;22.71
13387;BME280;6763;48.524;9.044;2022-07-23T11:27:44;97897.66;;;37.01;23.07
13387;BME280;6763;48.524;9.044;2022-07-23T11:30:12;97895.59;;;36.67;23.90
13387;BME280;6763;48.524;9.044;2022-07-23T11:35:35;97900.63;;;36.56;23.54
13387;BME280;6763;48.524;9.044;2022-07-23T11:38:13;97893.84;;;36.60;23.49
13387;BME280;6763;48.524;9.044;2022-07-23T11:40:39;97893.53;;;36.69;23.46
13387;BME280;6763;48.524;9.044;2022-07-23T11:43:09;97887.97;;;36.92;23.44
13387;BME280;6763;48.524;9.044;2022-07-23T11:45:38;97889.09;;;36.98;23.17
13387;BME280;6763;48.524;9.044;2022-07-23T11:48:05;97880.78;;;36.99;23.45
13387;BME280;6763;48.524;9.044;2022-07-23T11:50:31;97872.56;;;37.07;22.81
13387;BME280;6763;48.524;9.044;2022-07-23T11:52:57;97861.84;;;37.14;22.61
13387;BME280;6763;48.524;9.044;2022-07-23T11:55:22;97868.72;;;37.16;22.74
13387;BME280;6763;48.524;9.044;2022-07-23T11:57:50;97858.56;;;37.18;22.76
13387;BME280;6763;48.524;9.044;2022-07-23T12:00:19;97865.25;;;37.22;22.15
13387;BME280;6763;48.524;9.044;2022-07-23T12:02:50;97869.81;;;37.22;22.17
13387;BME280;6763;48.524;9.044;2022-07-23T12:05:23;97862.63;;;37.36;22.39
13387;BME280;6763;48.524;9.044;2022-07-23T12:07:51;97858.69;;;37.53;22.45
13387;BME280;6763;48.524;9.044;2022-07-23T12:10:19;97859.03;;;37.77;21.81
13387;BME280;6763;48.524;9.044;2022-07-23T12:13:06;97861.47;;;37.94;21.34
13387;BME280;6763;48.524;9.044;2022-07-23T12:15:36;97854.50;;;38.12;21.47
13387;BME280;6763;48.524;9.044;2022-07-23T12:18:06;97856.22;;;38.26;21.37
13387;BME280;6763;48.524;9.044;2022-07-23T12:20:46;97851.81;;;38.12;20.79
13387;BME280;6763;48.524;9.044;2022-07-23T12:23:15;97854.72;;;37.83;21.12
13387;BME280;6763;48.524;9.044;2022-07-23T12:25:45;97850.69;;;37.72;21.56
13387;BME280;6763;48.524;9.044;2022-07-23T12:28:17;97854.34;;;37.58;21.41
13387;BME280;6763;48.524;9.044;2022-07-23T12:30:45;97856.59;;;37.34;21.51
13387;BME280;6763;48.524;9.044;2022-07-23T12:33:21;97854.25;;;37.03;21.74
13387;BME280;6763;48.524;9.044;2022-07-23T12:35:47;97856.22;;;36.73;22.19
13387;BME280;6763;48.524;9.044;2022-07-23T12:38:16;97852.00;;;36.49;22.36
13387;BME280;6763;48.524;9.044;2022-07-23T12:40:45;97861.22;;;36.26;22.88
13387;BME280;6763;48.524;9.044;2022-07-23T12:45:48;97860.09;;;35.91;nan
13387;BME280;6763;48.524;9.044;2022-07-23T12:48:31;97851.81;;;35.92;23.20
13387;BME280;6763;48.524;9.044;2022-07-23T12:56:08;97867.75;;;36.02;23.21
13387;BME280;6763;48.524;9.044;2022-07-23T13:02:11;97867.38;;;36.05;23.22
13387;BME280;6763;48.524;9.044;2022-07-23T13:04:19;97866.44;;;36.13;23.21
13387;BME280;6763;48.524;9.044;2022-07-23T13:09:13;97869.66;;;36.37;22.62
13387;BME280;6763;48.524;9.044;2022-07-23T13:11:39;97863.06;;;36.54;22.67
13387;BME280;6763;48.524;9.044;2022-07-23T13:14:05;97865.38;;;36.79;22.26
13387;BME280;6763;48.524;9.044;2022-07-23T13:16:31;97866.53;;;37.05;21.64
13387;BME280;6763;48.524;9.044;2022-07-23T13:18:58;97862.94;;;37.41;21.39
13387;BME280;6763;48.524;9.044;2022-07-23T13:21:25;97864.16;;;37.94;21.24
13387;BME280;6763;48.524;9.044;2022-07-23T13:23:51;97873.59;;;38.38;20.55
13387;BME280;6763;48.524;9.044;2022-07-23T13:26:17;97869.03;;;38.39;20.31
13387;BME280;6763;48.524;9.044;2022-07-23T13:28:42;97869.44;;;38.36;20.31
13387;BME280;6763;48.524;9.044;2022-07-23T13:31:08;97868.50;;;38.22;20.28
13387;BME280;6763;48.524;9.044;2022-07-23T13:33:33;97862.34;;;38.01;20.56
13387;BME280;6763;48.524;9.044;2022-07-23T13:35:59;97861.03;;;37.62;20.91
13387;BME280;6763;48.524;9.044;2022-07-23T13:38:24;97874.72;;;37.12;21.49
13387;BME280;6763;48.524;9.044;2022-07-23T13:40:51;97880.53;;;36.58;22.18
13387;BME280;6763;48.524;9.044;2022-07-23T13:43:19;97896.94;;;36.13;22.64
13387;BME280;6763;48.524;9.044;2022-07-23T13:45:45;97904.75;;;35.56;24.96
13387;BME280;6763;48.524;9.044;2022-07-23T13:48:12;97912.28;;;34.46;29.12
13387;BME280;6763;48.524;9.044;2022-07-23T13:50:38;97915.16;;;33.25;32.36
13387;BME280;6763;48.524;9.044;2022-07-23T13:53:07;97911.59;;;32.42;33.69
13387;BME280;6763;48.524;9.044;2022-07-23T13:55:35;97907.81;;;32.19;34.62